sensor_id;sensor_type;location;lat;lon;timestamp;pressure;altitude;pressure_sealevel;temperature;humidity
40372;BME280;28564;53.346;-6.554;2023-04-08T00:02:14;101388.55;;;10.64;40.76
40372;BME280;28564;53.346;-6.554;2023-04-08T00:04:41;101386.42;;;10.64;40.96
40372;BME280;28564;53.346;-6.554;2023-04-08T00:07:08;101386.33;;;10.90;41.24
40372;BME280;28564;53.346;-6.554;2023-04-08T00:09:36;101387.82;;;10.89;41.50
40372;BME280;28564;53.346;-6.554;2023-04-08T00:12:03;101388.02;;;10.87;41.76
40372;BME280;28564;53.346;-6.554;2023-04-08T00:14:30;101384.85;;;10.84;42.08
40372;BME280;28564;53.346;-6.554;2023-04-08T00:16:57;101384.43;;;10.83;42.38
40372;BME280;28564;53.346;-6.554;2023-04-08T00:19:25;101386.03;;;10.84;42.48
40372;BME280;28564;53.346;-6.554;2023-04-08T00:21:52;101388.83;;;10.85;42.60
40372;BME280;28564;53.346;-6.554;2023-04-08T00:24:19;101387.55;;;10.85;42.79
40372;BME280;28564;53.346;-6.554;2023-04-08T00:26:47;101385.24;;;10.59;42.92
40372;BME280;28564;53.346;-6.554;2023-04-08T00:29:14;101386.83;;;10.61;42.94
40372;BME280;28564;53.346;-6.554;2023-04-08T00:31:41;101385.76;;;10.65;42.90
40372;BME280;28564;53.346;-6.554;2023-04-08T00:34:09;101381.02;;;10.69;42.90
40372;BME280;28564;53.346;-6.554;2023-04-08T00:36:36;101384.42;;;11.00;42.87
40372;BME280;28564;53.346;-6.554;2023-04-08T00:39:04;101381.93;;;11.02;43.02
40372;BME280;28564;53.346;-6.554;2023-04-08T00:41:33;101384.37;;;11.00;43.14
40372;BME280;28564;53.346;-6.554;2023-04-08T00:44:00;101389.57;;;10.75;43.17
40372;BME280;28564;53.346;-6.554;2023-04-08T00:46:28;101392.22;;;10.76;43.26
40372;BME280;28564;53.346;-6.554;2023-04-08T00:48:55;101392.83;;;11.01;43.33
40372;BME280;28564;53.346;-6.554;2023-04-08T00:51:22;101393.87;;;11.03;43.35
40372;BME280;28564;53.346;-6.554;2023-04-08T00:53:50;101387.38;;;10.74;43.46
40372;BME280;28564;53.346;-6.554;2023-04-08T00:56:17;101382.16;;;10.76;43.49
40372;BME280;28564;53.346;-6.554;2023-04-08T00:58:44;101380.73;;;10.80;43.46
40372;BME280;28564;53.346;-6.554;2023-04-08T01:01:24;101378.23;;;10.85;43.35
40372;BME280;28564;53.346;-6.554;2023-04-08T01:03:57;101373.81;;;10.66;43.28
40372;BME280;28564;53.346;-6.554;2023-04-08T01:06:31;101373.09;;;10.88;43.34
40372;BME280;28564;53.346;-6.554;2023-04-08T01:09:04;101373.40;;;10.84;43.46
40372;BME280;28564;53.346;-6.554;2023-04-08T01:11:33;101374.46;;;10.83;43.52
40372;BME280;28564;53.346;-6.554;2023-04-08T01:14:04;101375.46;;;10.83;43.58
40372;BME280;28564;53.346;-6.554;2023-04-08T01:16:32;101377.94;;;10.80;43.71
40372;BME280;28564;53.346;-6.554;2023-04-08T01:19:00;101376.09;;;10.79;43.79
40372;BME280;28564;53.346;-6.554;2023-04-08T01:21:27;101376.90;;;11.05;43.81
40372;BME280;28564;53.346;-6.554;2023-04-08T01:24:00;101376.53;;;11.02;43.89
40372;BME280;28564;53.346;-6.554;2023-04-08T01:26:28;101375.53;;;10.71;43.98
40372;BME280;28564;53.346;-6.554;2023-04-08T01:28:59;101376.90;;;10.71;43.97
40372;BME280;28564;53.346;-6.554;2023-04-08T01:31:27;101378.95;;;10.98;43.94
40372;BME280;28564;53.346;-6.554;2023-04-08T01:33:55;101378.91;;;10.73;43.91
40372;BME280;28564;53.346;-6.554;2023-04-08T01:36:24;101379.12;;;10.74;43.85
40372;BME280;28564;53.346;-6.554;2023-04-08T01:38:52;101378.17;;;10.76;43.79
40372;BME280;28564;53.346;-6.554;2023-04-08T01:41:19;101376.70;;;10.73;43.82
40372;BME280;28564;53.346;-6.554;2023-04-08T01:43:48;101378.18;;;11.01;43.77
40372;BME280;28564;53.346;-6.554;2023-04-08T01:46:15;101376.24;;;10.75;43.72
40372;BME280;28564;53.346;-6.554;2023-04-08T01:48:43;101377.47;;;10.49;43.74
40372;BME280;28564;53.346;-6.554;2023-04-08T01:51:12;101379.64;;;10.73;43.71
40372;BME280;28564;53.346;-6.554;2023-04-08T01:53:39;101381.83;;;10.75;43.63
40372;BME280;28564;53.346;-6.554;2023-04-08T01:56:11;101384.41;;;10.79;43.52
40372;BME280;28564;53.346;-6.554;2023-04-08T01:58:41;101384.24;;;10.60;43.43
40372;BME280;28564;53.346;-6.554;2023-04-08T02:01:11;101387.78;;;10.86;43.34
40372;BME280;28564;53.346;-6.554;2023-04-08T02:03:42;101384.31;;;11.14;43.26
40372;BME280;28564;53.346;-6.554;2023-04-08T02:06:09;101381.03;;;11.16;43.19
40372;BME280;28564;53.346;-6.554;2023-04-08T02:08:37;101383.65;;;11.15;43.21
40372;BME280;28564;53.346;-6.554;2023-04-08T02:11:04;101386.59;;;10.89;43.26
40372;BME280;28564;53.346;-6.554;2023-04-08T02:13:32;101387.42;;;10.92;43.22
40372;BME280;28564;53.346;-6.554;2023-04-08T02:16:04;101384.07;;;10.95;43.18
40372;BME280;28564;53.346;-6.554;2023-04-08T02:18:36;101385.13;;;11.01;43.13
40372;BME280;28564;53.346;-6.554;2023-04-08T02:21:09;101383.95;;;10.83;43.05
40372;BME280;28564;53.346;-6.554;2023-04-08T02:23:38;101383.71;;;11.33;42.98
40372;BME280;28564;53.346;-6.554;2023-04-08T02:26:11;101380.37;;;10.82;42.95
40372;BME280;28564;53.346;-6.554;2023-04-08T02:28:49;101378.82;;;11.28;42.96
40372;BME280;28564;53.346;-6.554;2023-04-08T02:31:17;101381.25;;;11.01;42.99
40372;BME280;28564;53.346;-6.554;2023-04-08T02:33:45;101384.04;;;10.98;43.00
40372;BME280;28564;53.346;-6.554;2023-04-08T02:36:13;101384.70;;;10.72;43.04
40372;BME280;28564;53.346;-6.554;2023-04-08T02:38:41;101383.43;;;10.87;43.18
40372;BME280;28564;53.346;-6.554;2023-04-08T02:41:13;101381.66;;;10.82;43.29
40372;BME280;28564;53.346;-6.554;2023-04-08T02:43:40;101379.52;;;10.55;43.42
40372;BME280;28564;53.346;-6.554;2023-04-08T02:46:08;101375.45;;;10.71;43.47
40372;BME280;28564;53.346;-6.554;2023-04-08T02:48:37;101374.43;;;10.44;43.55
40372;BME280;28564;53.346;-6.554;2023-04-08T02:51:04;101373.37;;;10.60;43.64
40372;BME280;28564;53.346;-6.554;2023-04-08T02:53:32;101376.57;;;10.82;43.75
40372;BME280;28564;53.346;-6.554;2023-04-08T02:55:58;101372.64;;;10.49;43.90
40372;BME280;28564;53.346;-6.554;2023-04-08T02:58:26;101366.14;;;10.67;44.07
40372;BME280;28564;53.346;-6.554;2023-04-08T03:00:53;101365.38;;;10.61;44.30
40372;BME280;28564;53.346;-6.554;2023-04-08T03:03:20;101367.20;;;10.54;44.47
40372;BME280;28564;53.346;-6.554;2023-04-08T03:05:48;101361.05;;;10.49;44.60
40372;BME280;28564;53.346;-6.554;2023-04-08T03:08:15;101356.49;;;10.44;44.67
40372;BME280;28564;53.346;-6.554;2023-04-08T03:10:43;101363.35;;;10.40;44.78
40372;BME280;28564;53.346;-6.554;2023-04-08T03:13:10;101362.60;;;10.35;44.89
40372;BME280;28564;53.346;-6.554;2023-04-08T03:15:37;101363.60;;;10.30;45.07
40372;BME280;28564;53.346;-6.554;2023-04-08T03:18:04;101363.34;;;10.27;45.18
40372;BME280;28564;53.346;-6.554;2023-04-08T03:20:33;101359.73;;;10.22;45.25
40372;BME280;28564;53.346;-6.554;2023-04-08T03:23:00;101358.10;;;10.18;45.35
40372;BME280;28564;53.346;-6.554;2023-04-08T03:25:32;101355.76;;;10.13;45.38
40372;BME280;28564;53.346;-6.554;2023-04-08T03:27:59;101357.95;;;10.10;45.38
40372;BME280;28564;53.346;-6.554;2023-04-08T03:30:26;101353.72;;;10.29;45.37
40372;BME280;28564;53.346;-6.554;2023-04-08T03:32:53;101348.16;;;10.25;45.39
40372;BME280;28564;53.346;-6.554;2023-04-08T03:35:21;101349.47;;;10.23;45.39
40372;BME280;28564;53.346;-6.554;2023-04-08T03:37:48;101352.60;;;10.00;45.39
40372;BME280;28564;53.346;-6.554;2023-04-08T03:40:15;101345.23;;;9.95;45.41
40372;BME280;28564;53.346;-6.554;2023-04-08T03:42:43;101342.89;;;9.93;45.42
40372;BME280;28564;53.346;-6.554;2023-04-08T03:45:10;101341.15;;;9.92;45.47
40372;BME280;28564;53.346;-6.554;2023-04-08T03:47:37;101342.36;;;10.40;45.49
40372;BME280;28564;53.346;-6.554;2023-04-08T03:50:05;101342.65;;;9.91;45.56
40372;BME280;28564;53.346;-6.554;2023-04-08T03:52:33;101348.48;;;9.92;45.55
40372;BME280;28564;53.346;-6.554;2023-04-08T03:55:00;101347.08;;;9.92;45.54
40372;BME280;28564;53.346;-6.554;2023-04-08T03:57:28;101345.01;;;9.93;45.50
40372;BME280;28564;53.346;-6.554;2023-04-08T03:59:55;101347.71;;;9.96;45.41
40372;BME280;28564;53.346;-6.554;2023-04-08T04:02:22;101348.14;;;10.21;45.32
40372;BME280;28564;53.346;-6.554;2023-04-08T04:04:49;101353.13;;;10.00;45.21
40372;BME280;28564;53.346;-6.554;2023-04-08T04:07:17;101353.46;;;10.49;45.15
40372;BME280;28564;53.346;-6.554;2023-04-08T04:09:44;101355.56;;;10.00;45.07
40372;BME280;28564;53.346;-6.554;2023-04-08T04:12:11;101360.85;;;9.97;45.00
40372;BME280;28564;53.346;-6.554;2023-04-08T04:14:38;101358.46;;;10.43;45.00
40372;BME280;28564;53.346;-6.554;2023-04-08T04:17:06;101363.76;;;9.91;45.04
40372;BME280;28564;53.346;-6.554;2023-04-08T04:19:33;101359.32;;;9.89;45.03
40372;BME280;28564;53.346;-6.554;2023-04-08T04:22:00;101353.59;;;10.36;44.97
40372;BME280;28564;53.346;-6.554;2023-04-08T04:24:28;101354.40;;;10.31;44.96
40372;BME280;28564;53.346;-6.554;2023-04-08T04:26:55;101351.33;;;10.25;45.09
40372;BME280;28564;53.346;-6.554;2023-04-08T04:29:22;101354.94;;;9.73;45.10
40372;BME280;28564;53.346;-6.554;2023-04-08T04:31:50;101354.64;;;9.95;45.04
40372;BME280;28564;53.346;-6.554;2023-04-08T04:34:17;101354.62;;;9.71;44.97
40372;BME280;28564;53.346;-6.554;2023-04-08T04:36:44;101349.04;;;9.90;44.96
40372;BME280;28564;53.346;-6.554;2023-04-08T04:39:12;101352.88;;;10.16;45.00
40372;BME280;28564;53.346;-6.554;2023-04-08T04:41:39;101351.87;;;9.67;45.04
40372;BME280;28564;53.346;-6.554;2023-04-08T04:44:06;101348.34;;;9.69;45.08
40372;BME280;28564;53.346;-6.554;2023-04-08T04:46:33;101348.20;;;10.21;45.06
40372;BME280;28564;53.346;-6.554;2023-04-08T04:49:01;101347.03;;;9.74;44.97
40372;BME280;28564;53.346;-6.554;2023-04-08T04:51:30;101345.13;;;9.74;44.91
40372;BME280;28564;53.346;-6.554;2023-04-08T04:53:57;101345.29;;;10.22;44.85
40372;BME280;28564;53.346;-6.554;2023-04-08T04:56:24;101344.87;;;9.93;44.81
40372;BME280;28564;53.346;-6.554;2023-04-08T04:58:52;101345.64;;;9.68;44.80
40372;BME280;28564;53.346;-6.554;2023-04-08T05:01:19;101349.88;;;9.65;44.78
40372;BME280;28564;53.346;-6.554;2023-04-08T05:03:47;101353.59;;;9.62;44.76
40372;BME280;28564;53.346;-6.554;2023-04-08T05:06:14;101353.25;;;9.79;44.80
40372;BME280;28564;53.346;-6.554;2023-04-08T05:08:41;101351.62;;;9.53;44.83
40372;BME280;28564;53.346;-6.554;2023-04-08T05:11:09;101352.14;;;9.99;44.94
40372;BME280;28564;53.346;-6.554;2023-04-08T05:13:36;101352.21;;;9.48;45.04
40372;BME280;28564;53.346;-6.554;2023-04-08T05:16:04;101350.61;;;9.96;45.12
40372;BME280;28564;53.346;-6.554;2023-04-08T05:18:31;101353.22;;;9.67;45.17
40372;BME280;28564;53.346;-6.554;2023-04-08T05:20:58;101359.41;;;9.67;45.17
40372;BME280;28564;53.346;-6.554;2023-04-08T05:23:26;101359.84;;;9.68;45.21
40372;BME280;28564;53.346;-6.554;2023-04-08T05:25:53;101360.81;;;9.95;45.24
40372;BME280;28564;53.346;-6.554;2023-04-08T05:28:20;101364.01;;;9.70;45.29
40372;BME280;28564;53.346;-6.554;2023-04-08T05:30:48;101364.99;;;9.72;45.35
40372;BME280;28564;53.346;-6.554;2023-04-08T05:33:16;101365.66;;;9.56;45.36
40372;BME280;28564;53.346;-6.554;2023-04-08T05:35:43;101365.96;;;9.82;45.41
40372;BME280;28564;53.346;-6.554;2023-04-08T05:38:11;101366.01;;;9.65;45.43
40372;BME280;28564;53.346;-6.554;2023-04-08T05:40:38;101365.68;;;9.90;45.43
40372;BME280;28564;53.346;-6.554;2023-04-08T05:43:05;101366.27;;;9.71;45.44
40372;BME280;28564;53.346;-6.554;2023-04-08T05:45:32;101369.04;;;9.72;45.49
40372;BME280;28564;53.346;-6.554;2023-04-08T05:48:00;101368.65;;;9.70;45.54
40372;BME280;28564;53.346;-6.554;2023-04-08T05:50:27;101369.43;;;10.18;45.53
40372;BME280;28564;53.346;-6.554;2023-04-08T05:52:54;101373.92;;;10.16;45.61
40372;BME280;28564;53.346;-6.554;2023-04-08T05:55:22;101374.34;;;9.67;45.69
40372;BME280;28564;53.346;-6.554;2023-04-08T05:57:49;101373.96;;;9.70;45.76
40372;BME280;28564;53.346;-6.554;2023-04-08T06:00:16;101375.67;;;9.72;46.03
40372;BME280;28564;53.346;-6.554;2023-04-08T06:02:43;101373.20;;;9.75;46.09
40372;BME280;28564;53.346;-6.554;2023-04-08T06:05:11;101374.81;;;9.80;46.11
40372;BME280;28564;53.346;-6.554;2023-04-08T06:07:38;101377.50;;;10.08;46.07
40372;BME280;28564;53.346;-6.554;2023-04-08T06:10:07;101378.93;;;9.91;46.07
40372;BME280;28564;53.346;-6.554;2023-04-08T06:12:35;101378.03;;;9.97;46.09
40372;BME280;28564;53.346;-6.554;2023-04-08T06:15:02;101381.18;;;10.05;46.03
40372;BME280;28564;53.346;-6.554;2023-04-08T06:17:29;101382.89;;;10.36;45.95
40372;BME280;28564;53.346;-6.554;2023-04-08T06:19:56;101382.96;;;9.94;45.92
40372;BME280;28564;53.346;-6.554;2023-04-08T06:22:23;101384.88;;;10.26;45.84
40372;BME280;28564;53.346;-6.554;2023-04-08T06:24:51;101386.58;;;10.31;45.73
40372;BME280;28564;53.346;-6.554;2023-04-08T06:27:18;101390.85;;;10.07;45.47
40372;BME280;28564;53.346;-6.554;2023-04-08T06:29:45;101395.04;;;10.35;45.27
40372;BME280;28564;53.346;-6.554;2023-04-08T06:32:13;101393.06;;;10.36;44.82
40372;BME280;28564;53.346;-6.554;2023-04-08T06:34:41;101392.11;;;10.36;44.57
40372;BME280;28564;53.346;-6.554;2023-04-08T06:37:08;101387.69;;;10.09;44.42
40372;BME280;28564;53.346;-6.554;2023-04-08T06:39:35;101388.45;;;10.36;44.40
40372;BME280;28564;53.346;-6.554;2023-04-08T06:42:03;101392.15;;;10.37;44.31
40372;BME280;28564;53.346;-6.554;2023-04-08T06:44:30;101393.92;;;10.41;44.15
40372;BME280;28564;53.346;-6.554;2023-04-08T06:46:57;101396.56;;;10.39;44.13
40372;BME280;28564;53.346;-6.554;2023-04-08T06:49:25;101396.76;;;10.41;44.12
40372;BME280;28564;53.346;-6.554;2023-04-08T06:51:52;101400.03;;;10.43;44.07
40372;BME280;28564;53.346;-6.554;2023-04-08T06:54:19;101402.99;;;10.17;44.04
40372;BME280;28564;53.346;-6.554;2023-04-08T06:56:46;101405.53;;;10.45;44.07
40372;BME280;28564;53.346;-6.554;2023-04-08T06:59:14;101409.88;;;10.21;44.09
40372;BME280;28564;53.346;-6.554;2023-04-08T07:01:41;101410.24;;;10.26;44.10
40372;BME280;28564;53.346;-6.554;2023-04-08T07:04:08;101415.94;;;10.31;44.07
40372;BME280;28564;53.346;-6.554;2023-04-08T07:06:36;101418.97;;;10.36;44.00
40372;BME280;28564;53.346;-6.554;2023-04-08T07:09:03;101415.63;;;10.42;43.97
40372;BME280;28564;53.346;-6.554;2023-04-08T07:11:30;101412.27;;;10.46;43.90
40372;BME280;28564;53.346;-6.554;2023-04-08T07:13:57;101411.71;;;10.83;43.86
40372;BME280;28564;53.346;-6.554;2023-04-08T07:16:25;101417.24;;;10.47;43.82
40372;BME280;28564;53.346;-6.554;2023-04-08T07:18:52;101418.45;;;10.81;43.77
40372;BME280;28564;53.346;-6.554;2023-04-08T07:21:19;101420.29;;;10.91;43.65
40372;BME280;28564;53.346;-6.554;2023-04-08T07:23:47;101419.92;;;10.77;43.63
40372;BME280;28564;53.346;-6.554;2023-04-08T07:26:14;101418.88;;;11.07;43.61
40372;BME280;28564;53.346;-6.554;2023-04-08T07:28:41;101419.70;;;10.97;43.60
40372;BME280;28564;53.346;-6.554;2023-04-08T07:31:10;101421.66;;;11.03;43.70
40372;BME280;28564;53.346;-6.554;2023-04-08T07:33:37;101423.25;;;11.14;43.64
40372;BME280;28564;53.346;-6.554;2023-04-08T07:36:05;101426.92;;;11.49;43.66
40372;BME280;28564;53.346;-6.554;2023-04-08T07:38:32;101433.17;;;11.57;43.72
40372;BME280;28564;53.346;-6.554;2023-04-08T07:40:59;101434.66;;;11.45;43.59
40372;BME280;28564;53.346;-6.554;2023-04-08T07:43:27;101439.16;;;11.34;43.56
40372;BME280;28564;53.346;-6.554;2023-04-08T07:45:59;101444.18;;;11.67;43.40
40372;BME280;28564;53.346;-6.554;2023-04-08T07:48:26;101447.31;;;11.80;43.28
40372;BME280;28564;53.346;-6.554;2023-04-08T07:50:54;101447.94;;;11.95;43.25
40372;BME280;28564;53.346;-6.554;2023-04-08T07:53:21;101452.15;;;11.98;43.04
40372;BME280;28564;53.346;-6.554;2023-04-08T07:55:48;101456.25;;;11.99;42.81
40372;BME280;28564;53.346;-6.554;2023-04-08T07:58:15;101462.55;;;12.27;42.67
40372;BME280;28564;53.346;-6.554;2023-04-08T08:00:42;101460.33;;;12.63;42.49
40372;BME280;28564;53.346;-6.554;2023-04-08T08:03:10;101459.99;;;13.02;42.18
40372;BME280;28564;53.346;-6.554;2023-04-08T08:05:37;101466.62;;;13.28;41.89
40372;BME280;28564;53.346;-6.554;2023-04-08T08:08:04;101471.16;;;13.31;41.65
40372;BME280;28564;53.346;-6.554;2023-04-08T08:10:32;101469.61;;;13.23;41.43
40372;BME280;28564;53.346;-6.554;2023-04-08T08:12:59;101466.99;;;13.62;41.35
40372;BME280;28564;53.346;-6.554;2023-04-08T08:15:27;101472.02;;;13.52;41.17
40372;BME280;28564;53.346;-6.554;2023-04-08T08:17:54;101471.96;;;13.57;40.91
40372;BME280;28564;53.346;-6.554;2023-04-08T08:20:21;101472.90;;;13.66;40.48
40372;BME280;28564;53.346;-6.554;2023-04-08T08:22:48;101468.29;;;13.71;40.44
40372;BME280;28564;53.346;-6.554;2023-04-08T08:25:16;101468.32;;;13.87;40.36
40372;BME280;28564;53.346;-6.554;2023-04-08T08:27:43;101468.63;;;13.98;40.00
40372;BME280;28564;53.346;-6.554;2023-04-08T08:30:10;101463.35;;;13.82;39.88
40372;BME280;28564;53.346;-6.554;2023-04-08T08:32:38;101460.01;;;14.22;39.37
40372;BME280;28564;53.346;-6.554;2023-04-08T08:35:06;101461.43;;;14.26;38.92
40372;BME280;28564;53.346;-6.554;2023-04-08T08:37:33;101461.56;;;14.04;39.23
40372;BME280;28564;53.346;-6.554;2023-04-08T08:40:00;101459.12;;;13.92;39.45
40372;BME280;28564;53.346;-6.554;2023-04-08T08:42:27;101454.56;;;14.46;39.28
40372;BME280;28564;53.346;-6.554;2023-04-08T08:44:55;101460.04;;;14.17;39.45
40372;BME280;28564;53.346;-6.554;2023-04-08T08:47:22;101457.84;;;14.22;39.44
40372;BME280;28564;53.346;-6.554;2023-04-08T08:49:49;101455.86;;;14.24;39.12
40372;BME280;28564;53.346;-6.554;2023-04-08T08:52:16;101455.73;;;13.97;39.38
40372;BME280;28564;53.346;-6.554;2023-04-08T08:54:44;101459.10;;;13.96;39.38
40372;BME280;28564;53.346;-6.554;2023-04-08T08:57:19;101457.40;;;14.48;39.71
40372;BME280;28564;53.346;-6.554;2023-04-08T08:59:46;101455.56;;;14.06;39.54
40372;BME280;28564;53.346;-6.554;2023-04-08T09:02:24;101455.00;;;14.31;39.52
40372;BME280;28564;53.346;-6.554;2023-04-08T09:04:56;101455.44;;;14.28;39.98
40372;BME280;28564;53.346;-6.554;2023-04-08T09:07:25;101458.34;;;14.28;39.83
40372;BME280;28564;53.346;-6.554;2023-04-08T09:09:54;101454.81;;;14.44;39.48
40372;BME280;28564;53.346;-6.554;2023-04-08T09:12:22;101457.50;;;14.84;38.92
40372;BME280;28564;53.346;-6.554;2023-04-08T09:14:49;101457.13;;;14.44;38.62
40372;BME280;28564;53.346;-6.554;2023-04-08T09:17:30;101457.73;;;14.51;38.81
40372;BME280;28564;53.346;-6.554;2023-04-08T09:20:08;101454.36;;;14.56;38.39
40372;BME280;28564;53.346;-6.554;2023-04-08T09:22:54;101451.04;;;14.62;38.46
40372;BME280;28564;53.346;-6.554;2023-04-08T09:25:23;101448.89;;;14.65;38.04
40372;BME280;28564;53.346;-6.554;2023-04-08T09:27:50;101452.09;;;14.63;38.12
40372;BME280;28564;53.346;-6.554;2023-04-08T09:30:17;101455.17;;;14.67;38.43
40372;BME280;28564;53.346;-6.554;2023-04-08T09:32:47;101453.85;;;14.82;38.35
40372;BME280;28564;53.346;-6.554;2023-04-08T09:35:14;101454.26;;;14.77;38.00
40372;BME280;28564;53.346;-6.554;2023-04-08T09:37:41;101451.26;;;14.72;38.17
40372;BME280;28564;53.346;-6.554;2023-04-08T09:40:09;101450.79;;;14.91;38.26
40372;BME280;28564;53.346;-6.554;2023-04-08T09:42:39;101450.16;;;14.75;38.43
40372;BME280;28564;53.346;-6.554;2023-04-08T09:45:09;101452.50;;;15.43;37.98
40372;BME280;28564;53.346;-6.554;2023-04-08T09:47:43;101448.87;;;15.04;38.00
40372;BME280;28564;53.346;-6.554;2023-04-08T09:50:16;101449.38;;;14.97;38.15
40372;BME280;28564;53.346;-6.554;2023-04-08T09:52:46;101452.21;;;15.16;38.21
40372;BME280;28564;53.346;-6.554;2023-04-08T09:55:17;101457.65;;;15.39;37.28
40372;BME280;28564;53.346;-6.554;2023-04-08T09:57:51;101453.59;;;15.45;36.64
40372;BME280;28564;53.346;-6.554;2023-04-08T10:00:21;101456.53;;;15.49;36.77
40372;BME280;28564;53.346;-6.554;2023-04-08T10:02:55;101455.47;;;15.32;36.17
40372;BME280;28564;53.346;-6.554;2023-04-08T10:05:26;101451.97;;;15.69;36.17
40372;BME280;28564;53.346;-6.554;2023-04-08T10:07:55;101451.48;;;15.77;36.20
40372;BME280;28564;53.346;-6.554;2023-04-08T10:10:23;101453.74;;;15.68;35.74
40372;BME280;28564;53.346;-6.554;2023-04-08T10:12:50;101453.81;;;15.82;35.21
40372;BME280;28564;53.346;-6.554;2023-04-08T10:15:26;101454.10;;;15.96;34.83
40372;BME280;28564;53.346;-6.554;2023-04-08T10:17:55;101448.50;;;16.04;34.81
40372;BME280;28564;53.346;-6.554;2023-04-08T10:20:56;101448.47;;;16.07;34.05
40372;BME280;28564;53.346;-6.554;2023-04-08T10:23:53;101444.01;;;16.02;34.12
40372;BME280;28564;53.346;-6.554;2023-04-08T10:26:39;101453.45;;;15.99;34.32
40372;BME280;28564;53.346;-6.554;2023-04-08T10:29:42;101444.33;;;16.12;34.63
40372;BME280;28564;53.346;-6.554;2023-04-08T10:32:27;101441.94;;;15.99;33.92
40372;BME280;28564;53.346;-6.554;2023-04-08T10:34:54;101437.30;;;16.13;34.10
40372;BME280;28564;53.346;-6.554;2023-04-08T10:37:21;101434.22;;;15.85;33.71
40372;BME280;28564;53.346;-6.554;2023-04-08T10:39:49;101431.92;;;15.79;33.75
40372;BME280;28564;53.346;-6.554;2023-04-08T10:42:16;101431.55;;;15.99;34.18
40372;BME280;28564;53.346;-6.554;2023-04-08T10:44:44;101425.29;;;15.94;34.12
40372;BME280;28564;53.346;-6.554;2023-04-08T10:47:11;101420.87;;;16.11;33.96
40372;BME280;28564;53.346;-6.554;2023-04-08T10:49:38;101421.94;;;16.12;33.99
40372;BME280;28564;53.346;-6.554;2023-04-08T10:52:07;101421.22;;;16.36;33.02
40372;BME280;28564;53.346;-6.554;2023-04-08T10:54:34;101420.77;;;16.26;32.66
40372;BME280;28564;53.346;-6.554;2023-04-08T10:57:02;101413.15;;;16.44;32.21
40372;BME280;28564;53.346;-6.554;2023-04-08T10:59:31;101414.74;;;16.57;31.20
40372;BME280;28564;53.346;-6.554;2023-04-08T11:01:58;101412.67;;;17.08;30.95
40372;BME280;28564;53.346;-6.554;2023-04-08T11:04:25;101413.09;;;16.61;31.33
40372;BME280;28564;53.346;-6.554;2023-04-08T11:06:52;101417.05;;;16.99;31.18
40372;BME280;28564;53.346;-6.554;2023-04-08T11:09:20;101413.04;;;17.08;31.22
40372;BME280;28564;53.346;-6.554;2023-04-08T11:11:47;101407.10;;;16.98;31.64
40372;BME280;28564;53.346;-6.554;2023-04-08T11:14:15;101410.26;;;17.26;31.62
40372;BME280;28564;53.346;-6.554;2023-04-08T11:16:44;101406.75;;;17.45;31.68
40372;BME280;28564;53.346;-6.554;2023-04-08T11:19:13;101408.53;;;17.36;31.34
40372;BME280;28564;53.346;-6.554;2023-04-08T11:21:40;101408.66;;;17.64;31.54
40372;BME280;28564;53.346;-6.554;2023-04-08T11:24:09;101407.55;;;17.70;31.24
40372;BME280;28564;53.346;-6.554;2023-04-08T11:26:37;101408.26;;;17.73;30.35
40372;BME280;28564;53.346;-6.554;2023-04-08T11:29:05;101401.52;;;17.31;30.07
40372;BME280;28564;53.346;-6.554;2023-04-08T11:31:35;101401.73;;;17.66;30.28
40372;BME280;28564;53.346;-6.554;2023-04-08T11:34:03;101397.14;;;17.76;30.54
40372;BME280;28564;53.346;-6.554;2023-04-08T11:36:30;101397.32;;;17.64;30.68
40372;BME280;28564;53.346;-6.554;2023-04-08T11:38:57;101397.18;;;17.89;30.92
40372;BME280;28564;53.346;-6.554;2023-04-08T11:41:24;101398.60;;;18.19;30.68
40372;BME280;28564;53.346;-6.554;2023-04-08T11:44:01;101399.19;;;18.66;29.84
40372;BME280;28564;53.346;-6.554;2023-04-08T11:46:28;101401.46;;;18.56;29.11
40372;BME280;28564;53.346;-6.554;2023-04-08T11:48:58;101396.96;;;18.51;28.96
40372;BME280;28564;53.346;-6.554;2023-04-08T11:51:26;101396.77;;;18.69;28.58
40372;BME280;28564;53.346;-6.554;2023-04-08T11:53:53;101397.43;;;18.70;28.56
40372;BME280;28564;53.346;-6.554;2023-04-08T11:56:21;101395.11;;;18.91;27.41
40372;BME280;28564;53.346;-6.554;2023-04-08T11:58:49;101391.63;;;18.93;27.49
40372;BME280;28564;53.346;-6.554;2023-04-08T12:01:17;101388.90;;;19.21;28.05
40372;BME280;28564;53.346;-6.554;2023-04-08T12:04:02;101389.99;;;19.17;28.70
40372;BME280;28564;53.346;-6.554;2023-04-08T12:06:29;101393.31;;;19.29;27.77
40372;BME280;28564;53.346;-6.554;2023-04-08T12:08:56;101392.23;;;19.31;27.90
40372;BME280;28564;53.346;-6.554;2023-04-08T12:11:23;101395.14;;;19.39;27.96
40372;BME280;28564;53.346;-6.554;2023-04-08T12:13:50;101395.28;;;19.51;28.48
40372;BME280;28564;53.346;-6.554;2023-04-08T12:16:18;101396.45;;;19.61;28.76
40372;BME280;28564;53.346;-6.554;2023-04-08T12:18:45;101400.24;;;19.73;29.38
40372;BME280;28564;53.346;-6.554;2023-04-08T12:21:12;101400.23;;;19.67;28.99
40372;BME280;28564;53.346;-6.554;2023-04-08T12:23:39;101404.62;;;19.82;28.99
40372;BME280;28564;53.346;-6.554;2023-04-08T12:26:06;101402.74;;;20.00;29.23
40372;BME280;28564;53.346;-6.554;2023-04-08T12:28:34;101404.93;;;20.15;29.21
40372;BME280;28564;53.346;-6.554;2023-04-08T12:31:01;101403.94;;;20.02;29.34
40372;BME280;28564;53.346;-6.554;2023-04-08T12:33:29;101397.59;;;20.25;29.45
40372;BME280;28564;53.346;-6.554;2023-04-08T12:35:56;101404.43;;;20.60;29.46
40372;BME280;28564;53.346;-6.554;2023-04-08T12:38:23;101397.97;;;20.75;29.25
40372;BME280;28564;53.346;-6.554;2023-04-08T12:40:50;101397.15;;;20.65;29.18
40372;BME280;28564;53.346;-6.554;2023-04-08T12:43:16;101404.67;;;20.73;29.24
40372;BME280;28564;53.346;-6.554;2023-04-08T12:45:43;101405.76;;;20.45;29.70
40372;BME280;28564;53.346;-6.554;2023-04-08T12:48:10;101399.04;;;20.19;30.11